TLPC/SLU METAR and TAF weather

Enter ICAO airport designator
Station Type Date Time Source
TLPC METAR 2019/10/23 00:00 UTC NOAA

TLPC 230000Z 11003KT 9999 FEW022 26/24 Q1011 NOSIG


Station Type Date Time Source
TLPC Decoded METAR 2019/10/23 00:00 UTC NOAA

Vigie, Saint Lucia (TLPC) 14-01N 061-00W 2M
Oct 22, 2019 - 08:00 PM EDT / 2019.10.23 0000 UTC
Wind: from the ESE (110 degrees) at 3 MPH (3 KT):0
Visibility: greater than 7 mile(s):0
Sky conditions: mostly clear
Temperature: 78 F (26 C)
Dew Point: 75 F (24 C)
Relative Humidity: 88%
Pressure (altimeter): 29.85 in. Hg (1011 hPa)
ob: TLPC 230000Z 11003KT 9999 FEW022 26/24 Q1011 NOSIG
cycle: 0

Station Type Date Time Source
TLPC TAF 2019/10/23 06:49 UTC NOAA

TAF TLPC 230530Z 2306/2406 10007KT 9999 SCT022
TEMPO 2306/2318 5000 SHRA PROB30
TEMPO 2318/2324 3000 TSRA FEW015CB BKN018

Example: see airport list